sensor_id;sensor_type;location;lat;lon;timestamp;pressure;altitude;pressure_sealevel;temperature
24160;BMP280;62385;41.594;23.808;2022-09-30T00:00:16;95249.34;;;16.68
24160;BMP280;62385;41.594;23.808;2022-09-30T00:02:43;95254.69;;;16.68
24160;BMP280;62385;41.594;23.808;2022-09-30T00:05:09;95257.94;;;16.66
24160;BMP280;62385;41.594;23.808;2022-09-30T00:07:34;95257.78;;;16.64
24160;BMP280;62385;41.594;23.808;2022-09-30T00:10:01;95257.94;;;16.66
24160;BMP280;62385;41.594;23.808;2022-09-30T00:12:27;95256.88;;;16.52
24160;BMP280;62385;41.594;23.808;2022-09-30T00:14:53;95268.69;;;16.49
24160;BMP280;62385;41.594;23.808;2022-09-30T00:17:19;95261.56;;;16.34
24160;BMP280;62385;41.594;23.808;2022-09-30T00:19:45;95270.00;;;16.40
24160;BMP280;62385;41.594;23.808;2022-09-30T00:22:11;95269.91;;;16.48
24160;BMP280;62385;41.594;23.808;2022-09-30T00:24:38;95266.78;;;16.42
24160;BMP280;62385;41.594;23.808;2022-09-30T00:27:03;95268.81;;;16.51
24160;BMP280;62385;41.594;23.808;2022-09-30T00:29:30;95279.94;;;16.57
24160;BMP280;62385;41.594;23.808;2022-09-30T00:31:55;95268.22;;;16.43
24160;BMP280;62385;41.594;23.808;2022-09-30T00:34:21;95274.75;;;16.32
24160;BMP280;62385;41.594;23.808;2022-09-30T00:36:51;95278.25;;;16.34
24160;BMP280;62385;41.594;23.808;2022-09-30T00:39:21;95284.91;;;16.16
24160;BMP280;62385;41.594;23.808;2022-09-30T00:41:50;95286.81;;;16.06
24160;BMP280;62385;41.594;23.808;2022-09-30T00:44:45;95287.41;;;16.14
24160;BMP280;62385;41.594;23.808;2022-09-30T00:48:21;95291.78;;;16.02
24160;BMP280;62385;41.594;23.808;2022-09-30T00:50:36;95293.88;;;15.93
24160;BMP280;62385;41.594;23.808;2022-09-30T00:53:14;95290.25;;;15.81
24160;BMP280;62385;41.594;23.808;2022-09-30T00:56:06;95286.41;;;15.74
24160;BMP280;62385;41.594;23.808;2022-09-30T00:58:44;95295.44;;;15.79
24160;BMP280;62385;41.594;23.808;2022-09-30T01:01:12;95303.34;;;15.87
24160;BMP280;62385;41.594;23.808;2022-09-30T01:03:47;95305.00;;;15.65
24160;BMP280;62385;41.594;23.808;2022-09-30T01:06:16;95300.91;;;15.64
24160;BMP280;62385;41.594;23.808;2022-09-30T01:08:42;95310.00;;;15.61
24160;BMP280;62385;41.594;23.808;2022-09-30T01:11:09;95314.94;;;15.64
24160;BMP280;62385;41.594;23.808;2022-09-30T01:13:36;95328.66;;;15.61
24160;BMP280;62385;41.594;23.808;2022-09-30T01:19:15;95325.31;;;15.10
24160;BMP280;62385;41.594;23.808;2022-09-30T01:28:05;95320.75;;;15.03
24160;BMP280;62385;41.594;23.808;2022-09-30T01:33:44;95322.31;;;15.06
24160;BMP280;62385;41.594;23.808;2022-09-30T01:44:53;95330.91;;;14.97
24160;BMP280;62385;41.594;23.808;2022-09-30T01:47:25;95331.97;;;14.93
24160;BMP280;62385;41.594;23.808;2022-09-30T01:50:19;95327.72;;;14.98
24160;BMP280;62385;41.594;23.808;2022-09-30T01:55:35;95313.59;;;14.80
24160;BMP280;62385;41.594;23.808;2022-09-30T01:58:18;95312.75;;;14.70
24160;BMP280;62385;41.594;23.808;2022-09-30T02:00:49;95323.44;;;14.95
24160;BMP280;62385;41.594;23.808;2022-09-30T02:03:26;95322.66;;;14.77
24160;BMP280;62385;41.594;23.808;2022-09-30T02:05:59;95330.56;;;14.92
24160;BMP280;62385;41.594;23.808;2022-09-30T02:08:31;95322.69;;;14.69
24160;BMP280;62385;41.594;23.808;2022-09-30T02:11:26;95327.59;;;14.81
24160;BMP280;62385;41.594;23.808;2022-09-30T02:14:05;95327.59;;;14.40
24160;BMP280;62385;41.594;23.808;2022-09-30T02:16:37;95329.34;;;14.45
24160;BMP280;62385;41.594;23.808;2022-09-30T02:19:13;95324.34;;;14.57
24160;BMP280;62385;41.594;23.808;2022-09-30T02:21:47;95319.44;;;14.79
24160;BMP280;62385;41.594;23.808;2022-09-30T02:24:16;95330.66;;;14.69
24160;BMP280;62385;41.594;23.808;2022-09-30T02:26:44;95326.97;;;14.65
24160;BMP280;62385;41.594;23.808;2022-09-30T02:29:31;95339.56;;;14.64
24160;BMP280;62385;41.594;23.808;2022-09-30T02:32:02;95345.06;;;14.66
24160;BMP280;62385;41.594;23.808;2022-09-30T02:34:34;95353.16;;;14.28
24160;BMP280;62385;41.594;23.808;2022-09-30T02:37:06;95358.47;;;14.28
24160;BMP280;62385;41.594;23.808;2022-09-30T02:42:26;95359.38;;;14.30
24160;BMP280;62385;41.594;23.808;2022-09-30T02:44:56;95368.66;;;14.14
24160;BMP280;62385;41.594;23.808;2022-09-30T02:50:42;95364.53;;;14.28
24160;BMP280;62385;41.594;23.808;2022-09-30T02:55:56;95351.28;;;13.98
24160;BMP280;62385;41.594;23.808;2022-09-30T02:58:23;95349.19;;;13.88
24160;BMP280;62385;41.594;23.808;2022-09-30T03:00:53;95342.06;;;13.99
24160;BMP280;62385;41.594;23.808;2022-09-30T03:03:34;95354.28;;;14.09
24160;BMP280;62385;41.594;23.808;2022-09-30T03:06:02;95363.88;;;14.13
24160;BMP280;62385;41.594;23.808;2022-09-30T03:08:28;95367.91;;;14.21
24160;BMP280;62385;41.594;23.808;2022-09-30T03:10:54;95361.56;;;13.94
24160;BMP280;62385;41.594;23.808;2022-09-30T03:30:42;95386.03;;;13.69
24160;BMP280;62385;41.594;23.808;2022-09-30T03:33:23;95396.13;;;13.86
24160;BMP280;62385;41.594;23.808;2022-09-30T03:36:02;95386.75;;;13.69
24160;BMP280;62385;41.594;23.808;2022-09-30T03:44:21;95365.66;;;13.48
24160;BMP280;62385;41.594;23.808;2022-09-30T03:46:52;95365.09;;;13.58
24160;BMP280;62385;41.594;23.808;2022-09-30T03:49:22;95379.31;;;13.76
24160;BMP280;62385;41.594;23.808;2022-09-30T03:51:49;95381.44;;;13.85
24160;BMP280;62385;41.594;23.808;2022-09-30T03:54:14;95379.84;;;13.74
24160;BMP280;62385;41.594;23.808;2022-09-30T03:56:41;95390.09;;;13.78
24160;BMP280;62385;41.594;23.808;2022-09-30T03:59:11;95388.16;;;13.47
24160;BMP280;62385;41.594;23.808;2022-09-30T04:01:37;95397.16;;;13.44
24160;BMP280;62385;41.594;23.808;2022-09-30T04:04:03;95398.44;;;13.89
24160;BMP280;62385;41.594;23.808;2022-09-30T04:06:29;95399.16;;;13.75
24160;BMP280;62385;41.594;23.808;2022-09-30T04:08:55;95405.16;;;13.52
24160;BMP280;62385;41.594;23.808;2022-09-30T04:11:22;95410.75;;;13.33
24160;BMP280;62385;41.594;23.808;2022-09-30T04:13:47;95410.44;;;13.37
24160;BMP280;62385;41.594;23.808;2022-09-30T04:16:13;95413.97;;;13.39
24160;BMP280;62385;41.594;23.808;2022-09-30T04:18:39;95410.81;;;13.56
24160;BMP280;62385;41.594;23.808;2022-09-30T04:21:06;95421.25;;;13.46
24160;BMP280;62385;41.594;23.808;2022-09-30T04:23:36;95431.38;;;13.56
24160;BMP280;62385;41.594;23.808;2022-09-30T04:26:01;95432.56;;;13.47
24160;BMP280;62385;41.594;23.808;2022-09-30T04:28:27;95441.41;;;13.34
24160;BMP280;62385;41.594;23.808;2022-09-30T04:30:53;95439.72;;;13.08
24160;BMP280;62385;41.594;23.808;2022-09-30T04:33:18;95440.06;;;12.97
24160;BMP280;62385;41.594;23.808;2022-09-30T04:35:44;95441.47;;;12.98
24160;BMP280;62385;41.594;23.808;2022-09-30T04:38:09;95452.25;;;13.00
24160;BMP280;62385;41.594;23.808;2022-09-30T04:40:36;95448.75;;;13.13
24160;BMP280;62385;41.594;23.808;2022-09-30T04:43:03;95447.19;;;13.17
24160;BMP280;62385;41.594;23.808;2022-09-30T04:45:29;95441.31;;;13.03
24160;BMP280;62385;41.594;23.808;2022-09-30T04:47:54;95450.38;;;13.16
24160;BMP280;62385;41.594;23.808;2022-09-30T04:50:20;95459.13;;;13.39
24160;BMP280;62385;41.594;23.808;2022-09-30T04:52:48;95463.63;;;13.75
24160;BMP280;62385;41.594;23.808;2022-09-30T04:55:14;95464.00;;;13.79
24160;BMP280;62385;41.594;23.808;2022-09-30T04:57:43;95459.88;;;13.70
24160;BMP280;62385;41.594;23.808;2022-09-30T05:00:10;95464.38;;;13.76
24160;BMP280;62385;41.594;23.808;2022-09-30T05:02:35;95471.38;;;13.58
24160;BMP280;62385;41.594;23.808;2022-09-30T05:05:01;95480.44;;;13.62
24160;BMP280;62385;41.594;23.808;2022-09-30T05:07:29;95479.75;;;13.69
24160;BMP280;62385;41.594;23.808;2022-09-30T05:10:14;95485.66;;;14.06
24160;BMP280;62385;41.594;23.808;2022-09-30T05:12:42;95472.88;;;13.89
24160;BMP280;62385;41.594;23.808;2022-09-30T05:15:08;95473.78;;;14.07
24160;BMP280;62385;41.594;23.808;2022-09-30T05:17:34;95479.06;;;13.92
24160;BMP280;62385;41.594;23.808;2022-09-30T05:20:01;95482.81;;;14.12
24160;BMP280;62385;41.594;23.808;2022-09-30T05:22:28;95487.56;;;14.21
24160;BMP280;62385;41.594;23.808;2022-09-30T05:24:53;95486.00;;;14.18
24160;BMP280;62385;41.594;23.808;2022-09-30T05:27:22;95489.72;;;14.23
24160;BMP280;62385;41.594;23.808;2022-09-30T05:29:48;95496.06;;;13.97
24160;BMP280;62385;41.594;23.808;2022-09-30T05:32:14;95485.63;;;13.83
24160;BMP280;62385;41.594;23.808;2022-09-30T05:34:39;95499.81;;;14.01
24160;BMP280;62385;41.594;23.808;2022-09-30T05:37:23;95505.34;;;14.19
24160;BMP280;62385;41.594;23.808;2022-09-30T05:39:49;95492.03;;;14.19
24160;BMP280;62385;41.594;23.808;2022-09-30T05:42:14;95491.84;;;14.40
24160;BMP280;62385;41.594;23.808;2022-09-30T05:44:40;95487.22;;;14.48
24160;BMP280;62385;41.594;23.808;2022-09-30T05:47:05;95485.59;;;14.60
24160;BMP280;62385;41.594;23.808;2022-09-30T05:49:31;95494.50;;;14.63
24160;BMP280;62385;41.594;23.808;2022-09-30T05:51:58;95489.00;;;14.53
24160;BMP280;62385;41.594;23.808;2022-09-30T05:54:24;95500.88;;;14.52
24160;BMP280;62385;41.594;23.808;2022-09-30T05:56:50;95497.28;;;14.65
24160;BMP280;62385;41.594;23.808;2022-09-30T05:59:16;95504.75;;;14.74
24160;BMP280;62385;41.594;23.808;2022-09-30T06:01:41;95493.78;;;14.62
24160;BMP280;62385;41.594;23.808;2022-09-30T06:04:07;95502.75;;;14.90
24160;BMP280;62385;41.594;23.808;2022-09-30T06:06:32;95512.56;;;14.80
24160;BMP280;62385;41.594;23.808;2022-09-30T06:08:58;95508.78;;;14.90
24160;BMP280;62385;41.594;23.808;2022-09-30T06:11:24;95521.56;;;14.92
24160;BMP280;62385;41.594;23.808;2022-09-30T06:13:50;95529.69;;;15.02
24160;BMP280;62385;41.594;23.808;2022-09-30T06:16:17;95528.66;;;15.05
24160;BMP280;62385;41.594;23.808;2022-09-30T06:18:43;95531.41;;;15.22
24160;BMP280;62385;41.594;23.808;2022-09-30T06:21:11;95538.31;;;15.25
24160;BMP280;62385;41.594;23.808;2022-09-30T06:23:37;95538.84;;;15.24
24160;BMP280;62385;41.594;23.808;2022-09-30T06:26:05;95543.88;;;15.12
24160;BMP280;62385;41.594;23.808;2022-09-30T06:28:31;95550.72;;;15.30
24160;BMP280;62385;41.594;23.808;2022-09-30T06:31:04;95556.66;;;15.62
24160;BMP280;62385;41.594;23.808;2022-09-30T06:33:30;95548.09;;;15.71
24160;BMP280;62385;41.594;23.808;2022-09-30T06:35:56;95563.69;;;15.74
24160;BMP280;62385;41.594;23.808;2022-09-30T06:38:22;95562.91;;;15.89
24160;BMP280;62385;41.594;23.808;2022-09-30T06:40:48;95566.44;;;15.92
24160;BMP280;62385;41.594;23.808;2022-09-30T06:43:15;95558.72;;;16.04
24160;BMP280;62385;41.594;23.808;2022-09-30T06:45:41;95563.66;;;16.07
24160;BMP280;62385;41.594;23.808;2022-09-30T06:48:09;95565.09;;;16.08
24160;BMP280;62385;41.594;23.808;2022-09-30T06:50:35;95572.44;;;16.25
24160;BMP280;62385;41.594;23.808;2022-09-30T06:53:04;95569.06;;;16.25
24160;BMP280;62385;41.594;23.808;2022-09-30T06:55:30;95562.78;;;16.30
24160;BMP280;62385;41.594;23.808;2022-09-30T06:57:56;95551.25;;;16.27
24160;BMP280;62385;41.594;23.808;2022-09-30T07:00:24;95549.09;;;16.33
24160;BMP280;62385;41.594;23.808;2022-09-30T07:02:50;95556.06;;;16.46
24160;BMP280;62385;41.594;23.808;2022-09-30T07:05:16;95564.72;;;16.54
24160;BMP280;62385;41.594;23.808;2022-09-30T07:07:43;95564.34;;;16.58
24160;BMP280;62385;41.594;23.808;2022-09-30T07:10:09;95573.56;;;16.65
24160;BMP280;62385;41.594;23.808;2022-09-30T07:12:35;95578.34;;;16.66
24160;BMP280;62385;41.594;23.808;2022-09-30T07:15:01;95572.31;;;16.66
24160;BMP280;62385;41.594;23.808;2022-09-30T07:17:27;95577.94;;;16.70
24160;BMP280;62385;41.594;23.808;2022-09-30T07:19:54;95574.91;;;16.91
24160;BMP280;62385;41.594;23.808;2022-09-30T07:22:19;95568.34;;;16.84
24160;BMP280;62385;41.594;23.808;2022-09-30T07:24:59;95569.38;;;16.89
24160;BMP280;62385;41.594;23.808;2022-09-30T07:27:26;95575.69;;;17.01
24160;BMP280;62385;41.594;23.808;2022-09-30T07:29:52;95583.72;;;17.18
24160;BMP280;62385;41.594;23.808;2022-09-30T07:32:20;95580.25;;;17.35
24160;BMP280;62385;41.594;23.808;2022-09-30T07:34:46;95579.28;;;17.31
24160;BMP280;62385;41.594;23.808;2022-09-30T07:37:30;95578.59;;;17.40
24160;BMP280;62385;41.594;23.808;2022-09-30T07:40:05;95582.94;;;17.35
24160;BMP280;62385;41.594;23.808;2022-09-30T07:42:32;95586.03;;;17.32
24160;BMP280;62385;41.594;23.808;2022-09-30T07:44:58;95589.16;;;17.38
24160;BMP280;62385;41.594;23.808;2022-09-30T07:47:24;95605.16;;;17.55
24160;BMP280;62385;41.594;23.808;2022-09-30T07:49:49;95593.19;;;17.74
24160;BMP280;62385;41.594;23.808;2022-09-30T07:52:15;95592.47;;;17.73
24160;BMP280;62385;41.594;23.808;2022-09-30T07:54:41;95589.03;;;17.90
24160;BMP280;62385;41.594;23.808;2022-09-30T07:57:08;95590.72;;;17.95
24160;BMP280;62385;41.594;23.808;2022-09-30T07:59:37;95593.44;;;18.05
24160;BMP280;62385;41.594;23.808;2022-09-30T08:02:07;95587.81;;;18.01
24160;BMP280;62385;41.594;23.808;2022-09-30T08:04:32;95592.84;;;17.97
24160;BMP280;62385;41.594;23.808;2022-09-30T08:07:00;95598.53;;;18.11
24160;BMP280;62385;41.594;23.808;2022-09-30T08:09:28;95606.09;;;18.32
24160;BMP280;62385;41.594;23.808;2022-09-30T08:11:54;95603.13;;;18.28
24160;BMP280;62385;41.594;23.808;2022-09-30T08:14:22;95595.53;;;18.53
24160;BMP280;62385;41.594;23.808;2022-09-30T08:16:48;95607.13;;;18.56
24160;BMP280;62385;41.594;23.808;2022-09-30T08:19:19;95609.91;;;18.38
24160;BMP280;62385;41.594;23.808;2022-09-30T08:21:47;95607.38;;;18.50
24160;BMP280;62385;41.594;23.808;2022-09-30T08:24:14;95607.53;;;18.62
24160;BMP280;62385;41.594;23.808;2022-09-30T08:26:40;95603.63;;;18.82
24160;BMP280;62385;41.594;23.808;2022-09-30T08:29:06;95604.34;;;18.93
24160;BMP280;62385;41.594;23.808;2022-09-30T08:31:32;95605.03;;;19.03
24160;BMP280;62385;41.594;23.808;2022-09-30T08:33:58;95604.47;;;18.95
24160;BMP280;62385;41.594;23.808;2022-09-30T08:36:25;95606.19;;;19.10
24160;BMP280;62385;41.594;23.808;2022-09-30T08:38:52;95599.09;;;19.04
24160;BMP280;62385;41.594;23.808;2022-09-30T08:47:01;95598.63;;;19.57
24160;BMP280;62385;41.594;23.808;2022-09-30T08:52:17;95591.28;;;19.57
24160;BMP280;62385;41.594;23.808;2022-09-30T08:54:47;95589.16;;;19.97
24160;BMP280;62385;41.594;23.808;2022-09-30T08:57:14;95585.84;;;19.77
24160;BMP280;62385;41.594;23.808;2022-09-30T08:59:47;95600.66;;;19.87
24160;BMP280;62385;41.594;23.808;2022-09-30T09:02:22;95592.78;;;20.11
24160;BMP280;62385;41.594;23.808;2022-09-30T09:04:50;95604.59;;;20.18
24160;BMP280;62385;41.594;23.808;2022-09-30T09:12:39;95588.00;;;20.31
24160;BMP280;62385;41.594;23.808;2022-09-30T09:20:32;95597.44;;;20.75
24160;BMP280;62385;41.594;23.808;2022-09-30T09:23:02;95587.66;;;20.79
24160;BMP280;62385;41.594;23.808;2022-09-30T09:25:28;95588.34;;;21.02
24160;BMP280;62385;41.594;23.808;2022-09-30T09:28:02;95589.50;;;21.10
24160;BMP280;62385;41.594;23.808;2022-09-30T09:30:42;95588.91;;;21.00
24160;BMP280;62385;41.594;23.808;2022-09-30T09:33:18;95590.19;;;21.11
24160;BMP280;62385;41.594;23.808;2022-09-30T09:47:01;95587.53;;;21.68
24160;BMP280;62385;41.594;23.808;2022-09-30T09:49:33;95580.72;;;21.55
24160;BMP280;62385;41.594;23.808;2022-09-30T09:57:06;95572.75;;;21.92
24160;BMP280;62385;41.594;23.808;2022-09-30T09:59:37;95569.72;;;21.98
24160;BMP280;62385;41.594;23.808;2022-09-30T10:02:24;95573.19;;;22.00
24160;BMP280;62385;41.594;23.808;2022-09-30T10:04:51;95576.44;;;22.22
24160;BMP280;62385;41.594;23.808;2022-09-30T10:07:27;95572.81;;;22.18
24160;BMP280;62385;41.594;23.808;2022-09-30T10:10:18;95578.44;;;22.22
24160;BMP280;62385;41.594;23.808;2022-09-30T10:12:44;95578.44;;;22.34
24160;BMP280;62385;41.594;23.808;2022-09-30T10:15:23;95590.09;;;22.50
24160;BMP280;62385;41.594;23.808;2022-09-30T10:18:18;95578.88;;;22.30
24160;BMP280;62385;41.594;23.808;2022-09-30T10:20:56;95580.22;;;22.55
24160;BMP280;62385;41.594;23.808;2022-09-30T10:23:31;95573.13;;;22.73
24160;BMP280;62385;41.594;23.808;2022-09-30T10:28:26;95578.28;;;22.94
24160;BMP280;62385;41.594;23.808;2022-09-30T10:31:34;95572.81;;;22.92
24160;BMP280;62385;41.594;23.808;2022-09-30T10:36:39;95571.66;;;23.09
24160;BMP280;62385;41.594;23.808;2022-09-30T10:39:26;95573.31;;;23.42
24160;BMP280;62385;41.594;23.808;2022-09-30T10:42:06;95567.28;;;23.16
24160;BMP280;62385;41.594;23.808;2022-09-30T10:44:59;95568.84;;;23.07
24160;BMP280;62385;41.594;23.808;2022-09-30T10:47:29;95569.94;;;23.02
24160;BMP280;62385;41.594;23.808;2022-09-30T10:50:04;95567.59;;;23.22
24160;BMP280;62385;41.594;23.808;2022-09-30T10:52:34;95563.41;;;23.33
24160;BMP280;62385;41.594;23.808;2022-09-30T10:55:24;95564.44;;;23.39
24160;BMP280;62385;41.594;23.808;2022-09-30T10:58:28;95561.50;;;23.35
24160;BMP280;62385;41.594;23.808;2022-09-30T11:06:38;95554.63;;;23.60
24160;BMP280;62385;41.594;23.808;2022-09-30T11:09:10;95549.00;;;23.97
24160;BMP280;62385;41.594;23.808;2022-09-30T11:11:41;95550.03;;;23.76
24160;BMP280;62385;41.594;23.808;2022-09-30T11:17:24;95551.00;;;23.97
24160;BMP280;62385;41.594;23.808;2022-09-30T11:19:52;95554.31;;;23.95
24160;BMP280;62385;41.594;23.808;2022-09-30T11:24:58;95552.56;;;24.16
24160;BMP280;62385;41.594;23.808;2022-09-30T11:30:23;95563.03;;;23.94
24160;BMP280;62385;41.594;23.808;2022-09-30T11:41:08;95561.38;;;24.60
24160;BMP280;62385;41.594;23.808;2022-09-30T11:46:50;95570.72;;;24.43
24160;BMP280;62385;41.594;23.808;2022-09-30T11:49:36;95564.28;;;24.50
24160;BMP280;62385;41.594;23.808;2022-09-30T11:58:11;95565.00;;;25.12
24160;BMP280;62385;41.594;23.808;2022-09-30T12:00:47;95564.06;;;24.60
24160;BMP280;62385;41.594;23.808;2022-09-30T12:03:37;95566.31;;;25.11
24160;BMP280;62385;41.594;23.808;2022-09-30T12:06:10;95571.28;;;24.85
24160;BMP280;62385;41.594;23.808;2022-09-30T12:08:50;95559.75;;;25.16
24160;BMP280;62385;41.594;23.808;2022-09-30T12:11:32;95558.78;;;25.25
24160;BMP280;62385;41.594;23.808;2022-09-30T12:14:06;95559.31;;;25.06
24160;BMP280;62385;41.594;23.808;2022-09-30T12:16:36;95570.25;;;24.62
24160;BMP280;62385;41.594;23.808;2022-09-30T12:19:13;95563.50;;;25.09
24160;BMP280;62385;41.594;23.808;2022-09-30T12:21:48;95561.91;;;25.35
24160;BMP280;62385;41.594;23.808;2022-09-30T12:24:52;95571.28;;;24.85
24160;BMP280;62385;41.594;23.808;2022-09-30T12:27:16;95567.09;;;25.13
24160;BMP280;62385;41.594;23.808;2022-09-30T12:30:09;95559.00;;;25.63
24160;BMP280;62385;41.594;23.808;2022-09-30T12:44:13;95559.81;;;25.83
24160;BMP280;62385;41.594;23.808;2022-09-30T12:49:49;95566.69;;;26.02
24160;BMP280;62385;41.594;23.808;2022-09-30T12:52:19;95569.41;;;26.02
24160;BMP280;62385;41.594;23.808;2022-09-30T12:54:54;95578.53;;;25.77
24160;BMP280;62385;41.594;23.808;2022-09-30T12:57:31;95576.69;;;25.82
24160;BMP280;62385;41.594;23.808;2022-09-30T13:00:21;95585.06;;;25.88
24160;BMP280;62385;41.594;23.808;2022-09-30T13:03:08;95583.84;;;25.91
24160;BMP280;62385;41.594;23.808;2022-09-30T13:10:43;95582.03;;;25.80
24160;BMP280;62385;41.594;23.808;2022-09-30T13:26:40;95579.81;;;25.92
24160;BMP280;62385;41.594;23.808;2022-09-30T13:34:12;95579.38;;;26.16
24160;BMP280;62385;41.594;23.808;2022-09-30T13:44:37;95594.41;;;26.19
24160;BMP280;62385;41.594;23.808;2022-09-30T13:47:12;95593.50;;;26.12
24160;BMP280;62385;41.594;23.808;2022-09-30T13:52:33;95601.56;;;26.28
24160;BMP280;62385;41.594;23.808;2022-09-30T14:17:51;95630.31;;;26.53
24160;BMP280;62385;41.594;23.808;2022-09-30T14:22:58;95618.38;;;26.60
24160;BMP280;62385;41.594;23.808;2022-09-30T14:25:24;95615.97;;;26.50
24160;BMP280;62385;41.594;23.808;2022-09-30T14:27:59;95614.72;;;26.53
24160;BMP280;62385;41.594;23.808;2022-09-30T14:30:33;95628.53;;;26.42
24160;BMP280;62385;41.594;23.808;2022-09-30T14:35:36;95612.72;;;26.36
24160;BMP280;62385;41.594;23.808;2022-09-30T14:38:12;95612.53;;;26.14
24160;BMP280;62385;41.594;23.808;2022-09-30T14:40:40;95616.59;;;26.13
24160;BMP280;62385;41.594;23.808;2022-09-30T14:43:15;95612.63;;;26.34
24160;BMP280;62385;41.594;23.808;2022-09-30T14:45:44;95611.84;;;26.31
24160;BMP280;62385;41.594;23.808;2022-09-30T14:48:19;95617.75;;;26.26
24160;BMP280;62385;41.594;23.808;2022-09-30T14:50:56;95620.56;;;26.46
24160;BMP280;62385;41.594;23.808;2022-09-30T14:53:30;95620.47;;;26.26
24160;BMP280;62385;41.594;23.808;2022-09-30T14:55:56;95619.19;;;26.11
24160;BMP280;62385;41.594;23.808;2022-09-30T14:58:29;95621.53;;;25.85
24160;BMP280;62385;41.594;23.808;2022-09-30T15:03:24;95618.31;;;25.89
24160;BMP280;62385;41.594;23.808;2022-09-30T15:05:51;95625.72;;;25.88
24160;BMP280;62385;41.594;23.808;2022-09-30T15:08:18;95624.59;;;25.77
24160;BMP280;62385;41.594;23.808;2022-09-30T15:10:52;95624.81;;;25.66
24160;BMP280;62385;41.594;23.808;2022-09-30T15:13:21;95615.63;;;25.57
24160;BMP280;62385;41.594;23.808;2022-09-30T15:15:48;95623.31;;;25.31
24160;BMP280;62385;41.594;23.808;2022-09-30T15:18:39;95628.50;;;25.40
24160;BMP280;62385;41.594;23.808;2022-09-30T15:21:11;95638.06;;;25.12
24160;BMP280;62385;41.594;23.808;2022-09-30T15:23:42;95642.91;;;24.84
24160;BMP280;62385;41.594;23.808;2022-09-30T15:26:11;95639.03;;;24.73
24160;BMP280;62385;41.594;23.808;2022-09-30T15:28:37;95649.63;;;24.69
24160;BMP280;62385;41.594;23.808;2022-09-30T15:31:05;95645.94;;;24.46
24160;BMP280;62385;41.594;23.808;2022-09-30T15:33:32;95659.16;;;24.26
24160;BMP280;62385;41.594;23.808;2022-09-30T15:36:05;95657.44;;;24.19
24160;BMP280;62385;41.594;23.808;2022-09-30T15:38:33;95653.25;;;23.89
24160;BMP280;62385;41.594;23.808;2022-09-30T15:41:06;95652.81;;;23.53
24160;BMP280;62385;41.594;23.808;2022-09-30T15:43:36;95656.75;;;23.24
24160;BMP280;62385;41.594;23.808;2022-09-30T15:46:22;95660.88;;;22.88
24160;BMP280;62385;41.594;23.808;2022-09-30T15:48:51;95661.47;;;22.49
24160;BMP280;62385;41.594;23.808;2022-09-30T15:51:38;95654.72;;;22.01
24160;BMP280;62385;41.594;23.808;2022-09-30T15:56:38;95668.72;;;21.64
24160;BMP280;62385;41.594;23.808;2022-09-30T16:06:32;95682.38;;;21.11
24160;BMP280;62385;41.594;23.808;2022-09-30T16:11:55;95712.28;;;20.84
24160;BMP280;62385;41.594;23.808;2022-09-30T16:14:42;95706.69;;;20.70
24160;BMP280;62385;41.594;23.808;2022-09-30T16:17:19;95705.84;;;20.46
24160;BMP280;62385;41.594;23.808;2022-09-30T16:19:55;95704.06;;;20.29
24160;BMP280;62385;41.594;23.808;2022-09-30T16:25:15;95718.34;;;20.32
24160;BMP280;62385;41.594;23.808;2022-09-30T16:27:43;95720.88;;;20.30
24160;BMP280;62385;41.594;23.808;2022-09-30T16:30:13;95711.91;;;20.16
24160;BMP280;62385;41.594;23.808;2022-09-30T16:32:41;95715.59;;;20.10
24160;BMP280;62385;41.594;23.808;2022-09-30T16:35:17;95723.25;;;19.95
24160;BMP280;62385;41.594;23.808;2022-09-30T16:37:45;95727.78;;;19.92
24160;BMP280;62385;41.594;23.808;2022-09-30T16:40:22;95734.69;;;19.85
24160;BMP280;62385;41.594;23.808;2022-09-30T16:42:50;95746.28;;;19.78
24160;BMP280;62385;41.594;23.808;2022-09-30T16:45:16;95751.41;;;19.84
24160;BMP280;62385;41.594;23.808;2022-09-30T16:47:43;95746.16;;;19.66
24160;BMP280;62385;41.594;23.808;2022-09-30T16:53:00;95756.19;;;19.37
24160;BMP280;62385;41.594;23.808;2022-09-30T16:55:26;95757.59;;;19.28
24160;BMP280;62385;41.594;23.808;2022-09-30T16:57:54;95763.41;;;19.44
24160;BMP280;62385;41.594;23.808;2022-09-30T17:00:23;95758.31;;;19.48
24160;BMP280;62385;41.594;23.808;2022-09-30T17:02:49;95756.06;;;19.44
24160;BMP280;62385;41.594;23.808;2022-09-30T17:05:17;95764.41;;;19.39
24160;BMP280;62385;41.594;23.808;2022-09-30T17:07:44;95760.03;;;19.43
24160;BMP280;62385;41.594;23.808;2022-09-30T17:10:25;95767.19;;;19.41
24160;BMP280;62385;41.594;23.808;2022-09-30T17:12:54;95772.00;;;19.42
24160;BMP280;62385;41.594;23.808;2022-09-30T17:15:20;95764.41;;;19.39
24160;BMP280;62385;41.594;23.808;2022-09-30T17:17:46;95770.56;;;19.32
24160;BMP280;62385;41.594;23.808;2022-09-30T17:20:12;95765.53;;;19.36
24160;BMP280;62385;41.594;23.808;2022-09-30T17:22:38;95764.22;;;19.37
24160;BMP280;62385;41.594;23.808;2022-09-30T17:25:05;95760.44;;;19.40
24160;BMP280;62385;41.594;23.808;2022-09-30T17:27:31;95762.81;;;19.26
24160;BMP280;62385;41.594;23.808;2022-09-30T17:29:56;95757.75;;;19.30
24160;BMP280;62385;41.594;23.808;2022-09-30T17:32:22;95771.44;;;19.34
24160;BMP280;62385;41.594;23.808;2022-09-30T17:34:47;95773.41;;;19.34
24160;BMP280;62385;41.594;23.808;2022-09-30T17:37:13;95782.25;;;19.07
24160;BMP280;62385;41.594;23.808;2022-09-30T17:39:39;95795.34;;;19.03
24160;BMP280;62385;41.594;23.808;2022-09-30T17:42:05;95796.00;;;18.84
24160;BMP280;62385;41.594;23.808;2022-09-30T17:44:50;95810.50;;;18.81
24160;BMP280;62385;41.594;23.808;2022-09-30T17:47:16;95803.69;;;18.70
24160;BMP280;62385;41.594;23.808;2022-09-30T17:49:42;95814.41;;;18.70
24160;BMP280;62385;41.594;23.808;2022-09-30T17:52:08;95813.97;;;18.64
24160;BMP280;62385;41.594;23.808;2022-09-30T17:54:34;95813.28;;;18.36
24160;BMP280;62385;41.594;23.808;2022-09-30T17:57:00;95810.59;;;18.19
24160;BMP280;62385;41.594;23.808;2022-09-30T17:59:26;95816.34;;;18.15
24160;BMP280;62385;41.594;23.808;2022-09-30T18:01:53;95811.16;;;18.17